Terminal Aerodrome Forecast
Issued by NWS Wilmington, OH

Home | Current Version | Previous Version | Text Only | Print | Product List | Glossary On
Versions: 1 2 3 4 5 6 7 8 9 10 11 12 13 14 15 16 17
000
FTUS41 KILN 300500
TAFCMH
TAF
KCMH 300520Z 3006/3106 21014KT P6SM -RA SCT025 BKN040
     FM300800 28012G20KT P6SM SCT022
     FM301700 29014G22KT P6SM SCT040
     FM310000 25007KT P6SM SCT080 BKN150=

USA.gov is the U.S. government's official web portal to all federal, state and local government web resources and services.